Time;durP1;ratioP1;P1;durP2;ratioP2;P2;SDS_P1;SDS_P2;PMS_P1;PMS_P2;Temp;Humidity;BMP_temperature;BMP_pressure;BME280_temperature;BME280_humidity;BME280_pressure;Samples;Min_cycle;Max_cycle;Signal;HPM_P1;HPM_P2
2022/01/21 00:01:06;;;;;;;1.80;0.85;;;3.50;69.60;;;;;;5055450;28;20020;-65
2022/01/21 00:03:32;;;;;;;2.05;1.00;;;3.50;69.20;;;;;;5063170;28;20024;-65
2022/01/21 00:05:58;;;;;;;1.75;0.73;;;3.40;69.40;;;;;;5064402;28;20036;-66
2022/01/21 00:08:24;;;;;;;1.02;0.60;;;3.30;69.10;;;;;;5050136;28;20033;-65
2022/01/21 00:10:53;;;;;;;1.85;0.75;;;3.30;69.50;;;;;;5051990;28;20033;-64
2022/01/21 00:13:40;;;;;;;1.95;0.68;;;3.20;69.50;;;;;;5067202;28;20049;-66
2022/01/21 00:16:11;;;;;;;3.83;1.15;;;3.20;69.40;;;;;;5065060;28;20052;-66
2022/01/21 00:18:39;;;;;;;2.08;0.80;;;3.30;69.00;;;;;;5063025;28;20055;-66
2022/01/21 00:32:06;;;;;;;1.80;0.75;;;3.40;66.50;;;;;;5065195;28;20603;-65
2022/01/21 00:34:32;;;;;;;2.17;1.00;;;3.40;65.30;;;;;;5021898;28;20125;-67
2022/01/21 00:36:57;;;;;;;5.80;1.25;;;3.50;64.90;;;;;;5063209;28;20453;-64
2022/01/21 00:39:27;;;;;;;5.07;1.10;;;3.50;65.00;;;;;;5051550;28;20033;-65
2022/01/21 00:42:50;;;;;;;6.20;0.93;;;3.50;69.20;;;;;;5068685;28;20048;-65
2022/01/21 00:44:42;;;;;;;3.45;1.45;;;3.20;73.50;;;;;;5059546;28;20037;-65
2022/01/21 00:47:08;;;;;;;8.95;1.20;;;3.00;78.10;;;;;;5069145;28;20389;-66
2022/01/21 00:49:34;;;;;;;5.18;1.50;;;2.90;79.20;;;;;;5051315;28;20418;-66
2022/01/21 00:52:01;;;;;;;7.68;1.20;;;2.90;79.00;;;;;;5068191;28;20035;-66
2022/01/21 00:54:26;;;;;;;7.60;0.90;;;2.80;77.60;;;;;;5068555;28;20025;-65
2022/01/21 00:56:53;;;;;;;3.38;0.95;;;2.60;73.30;;;;;;5069021;28;20085;-66
2022/01/21 00:59:19;;;;;;;4.70;1.27;;;2.60;75.00;;;;;;5051468;28;20028;-65
2022/01/21 01:01:46;;;;;;;6.65;1.05;;;2.60;73.20;;;;;;5069150;28;20024;-66
2022/01/21 01:04:12;;;;;;;3.42;1.10;;;2.60;74.00;;;;;;5068807;28;20029;-65
2022/01/21 01:06:37;;;;;;;2.28;1.10;;;2.60;73.00;;;;;;5049838;28;20020;-65
2022/01/21 01:09:04;;;;;;;3.22;1.02;;;2.60;72.60;;;;;;5067348;28;20036;-65
2022/01/21 01:22:56;;;;;;;3.90;1.23;;;2.70;72.00;;;;;;5073330;28;20043;-65
2022/01/21 01:27:59;;;;;;;9.43;1.25;;;2.80;72.60;;;;;;5066793;28;20035;-65
2022/01/21 01:30:30;;;;;;;3.75;1.05;;;2.70;67.80;;;;;;5055291;28;20028;-64
2022/01/21 01:32:58;;;;;;;4.63;1.65;;;2.70;70.80;;;;;;5071892;28;20021;-65
2022/01/21 01:35:26;;;;;;;5.72;1.40;;;2.80;68.70;;;;;;5072341;28;20036;-65
2022/01/21 01:38:12;;;;;;;5.75;1.05;;;2.70;66.90;;;;;;5054650;28;20499;-65
2022/01/21 01:40:44;;;;;;;7.85;1.77;;;2.60;65.80;;;;;;5072390;28;20055;-66
2022/01/21 01:49:26;;;;;;;6.32;1.42;;;2.60;66.10;;;;;;5054905;28;20071;-66
2022/01/21 01:51:28;;;;;;;7.65;1.40;;;2.30;63.90;;;;;;5072434;28;20048;-65
2022/01/21 01:54:13;;;;;;;5.60;1.52;;;2.20;63.80;;;;;;5053517;28;20032;-66
2022/01/21 01:56:46;;;;;;;5.68;1.25;;;2.30;64.60;;;;;;5072153;28;20039;-65
2022/01/21 01:59:12;;;;;;;10.18;1.85;;;2.30;63.70;;;;;;5072198;28;20033;-66
2022/01/21 02:01:38;;;;;;;5.97;1.20;;;2.40;63.90;;;;;;5072204;28;20051;-65
2022/01/21 02:04:04;;;;;;;5.50;1.33;;;2.30;63.00;;;;;;5071397;28;20095;-65
2022/01/21 02:06:30;;;;;;;8.35;1.52;;;2.30;62.30;;;;;;5071978;28;20029;-64
2022/01/21 02:08:56;;;;;;;8.07;1.45;;;2.20;62.00;;;;;;5070641;28;20190;-64
2022/01/21 02:11:22;;;;;;;7.18;1.20;;;2.20;62.00;;;;;;5053163;28;20552;-64
2022/01/21 02:13:55;;;;;;;6.93;1.40;;;2.20;61.40;;;;;;5071032;28;20371;-65
2022/01/21 02:21:36;;;;;;;4.90;1.20;;;2.30;62.00;;;;;;5071685;28;20039;-66
2022/01/21 02:24:06;;;;;;;3.33;1.20;;;2.30;61.60;;;;;;5070246;28;20032;-66
2022/01/21 02:26:32;;;;;;;5.80;1.42;;;2.30;60.70;;;;;;5053143;28;20689;-66
2022/01/21 02:29:00;;;;;;;6.65;1.60;;;2.30;60.50;;;;;;5065190;28;20111;-66
2022/01/21 02:31:26;;;;;;;5.72;1.48;;;2.30;60.30;;;;;;5071415;28;20036;-65
2022/01/21 02:33:52;;;;;;;7.53;1.33;;;2.30;60.00;;;;;;5051988;28;20029;-66
2022/01/21 02:36:17;;;;;;;5.53;1.30;;;2.20;60.20;;;;;;5071067;28;20029;-66
2022/01/21 02:38:43;;;;;;;4.43;1.40;;;2.30;60.70;;;;;;5071254;28;20516;-66
2022/01/21 02:41:09;;;;;;;5.60;1.58;;;2.30;60.50;;;;;;5071012;28;20303;-65
2022/01/21 02:43:35;;;;;;;8.98;1.42;;;2.30;59.80;;;;;;5053140;28;20382;-66
2022/01/21 02:46:05;;;;;;;3.42;1.35;;;2.20;60.00;;;;;;5070324;28;20028;-66
2022/01/21 02:48:35;;;;;;;7.75;1.90;;;2.30;60.00;;;;;;5070482;28;20083;-66
2022/01/21 02:51:01;;;;;;;5.78;1.23;;;2.20;60.40;;;;;;5070285;28;20082;-66
2022/01/21 02:53:40;;;;;;;7.63;1.40;;;2.20;60.00;;;;;;5070380;28;20166;-66
2022/01/21 02:56:09;;;;;;;5.72;1.45;;;2.10;59.70;;;;;;5069870;28;20028;-66
2022/01/21 02:58:36;;;;;;;10.23;1.90;;;2.00;60.20;;;;;;5070859;28;20044;-65
2022/01/21 03:01:02;;;;;;;5.47;1.50;;;2.00;60.00;;;;;;5069737;28;20535;-66
2022/01/21 03:03:27;;;;;;;4.00;1.10;;;2.10;60.10;;;;;;5071598;28;20036;-64
2022/01/21 03:05:53;;;;;;;5.20;1.45;;;2.10;59.90;;;;;;5070778;28;20055;-64
2022/01/21 03:08:19;;;;;;;5.22;1.33;;;2.00;59.40;;;;;;5070829;28;20036;-64
2022/01/21 03:10:44;;;;;;;7.03;1.73;;;2.00;60.30;;;;;;5070884;28;20032;-65
2022/01/21 03:13:10;;;;;;;7.57;1.67;;;2.00;59.90;;;;;;5057525;28;20048;-64
2022/01/21 03:15:36;;;;;;;6.82;1.38;;;2.00;60.40;;;;;;5089792;28;20067;-65
2022/01/21 03:18:02;;;;;;;5.90;1.52;;;2.00;59.70;;;;;;5090854;28;20039;-65
2022/01/21 03:20:29;;;;;;;6.50;1.30;;;1.90;59.60;;;;;;5090829;28;20488;-65
2022/01/21 03:22:54;;;;;;;8.07;1.70;;;1.80;59.70;;;;;;5090556;28;20100;-64
2022/01/21 03:25:20;;;;;;;8.70;1.75;;;1.80;59.30;;;;;;5090186;28;20047;-65
2022/01/21 03:27:46;;;;;;;7.50;1.67;;;1.80;59.40;;;;;;5088824;28;20028;-65
2022/01/21 03:30:12;;;;;;;5.88;1.58;;;1.90;59.00;;;;;;5090717;28;20451;-65
2022/01/21 03:32:37;;;;;;;8.25;2.00;;;1.70;59.40;;;;;;5088600;28;20034;-65
2022/01/21 03:35:04;;;;;;;6.28;1.60;;;1.80;59.70;;;;;;5090177;28;20093;-65
2022/01/21 03:37:30;;;;;;;12.05;1.73;;;1.90;58.90;;;;;;5074852;28;20063;-65
2022/01/21 03:39:56;;;;;;;5.45;1.63;;;1.80;59.30;;;;;;5074866;28;20288;-65
2022/01/21 03:42:21;;;;;;;8.80;2.00;;;1.80;59.30;;;;;;5091342;28;20024;-65
2022/01/21 03:44:47;;;;;;;9.07;1.85;;;1.80;59.30;;;;;;5088647;28;20593;-65
2022/01/21 03:47:13;;;;;;;6.43;1.52;;;1.90;59.60;;;;;;5090700;28;20024;-64
2022/01/21 03:49:48;;;;;;;7.78;2.28;;;1.90;60.30;;;;;;5088771;28;20036;-65
2022/01/21 03:52:13;;;;;;;14.45;2.00;;;1.90;59.80;;;;;;5089679;28;20114;-65
2022/01/21 03:54:39;;;;;;;8.48;1.80;;;1.90;61.30;;;;;;5088234;28;20107;-66
2022/01/21 03:57:05;;;;;;;3.20;1.25;;;1.90;61.10;;;;;;5088830;28;20024;-65
2022/01/21 03:59:31;;;;;;;9.80;1.63;;;1.90;59.80;;;;;;5089869;28;20040;-65
2022/01/21 04:01:57;;;;;;;8.77;1.52;;;1.80;59.60;;;;;;5068454;28;20123;-65
2022/01/21 04:04:22;;;;;;;7.25;1.60;;;1.90;59.30;;;;;;5080134;28;20028;-65
2022/01/21 04:06:48;;;;;;;5.32;1.55;;;1.90;59.50;;;;;;5090203;28;20052;-65
2022/01/21 04:09:15;;;;;;;5.60;1.60;;;1.90;59.50;;;;;;5089635;28;20033;-65
2022/01/21 04:11:41;;;;;;;9.45;2.25;;;1.90;58.40;;;;;;5088661;28;20119;-66
2022/01/21 04:14:07;;;;;;;9.27;1.65;;;1.80;58.20;;;;;;5077887;28;20117;-65
2022/01/21 04:16:32;;;;;;;3.53;1.33;;;1.90;58.10;;;;;;5069886;28;20043;-65
2022/01/21 04:18:58;;;;;;;6.47;1.83;;;1.80;58.70;;;;;;5069468;28;20029;-65
2022/01/21 04:21:24;;;;;;;6.97;1.75;;;1.80;57.10;;;;;;5069991;28;20070;-65
2022/01/21 04:23:49;;;;;;;11.65;2.00;;;1.70;57.80;;;;;;5069350;28;20027;-64
2022/01/21 04:26:15;;;;;;;11.60;1.98;;;1.70;58.00;;;;;;5052318;28;20055;-64
2022/01/21 04:28:41;;;;;;;9.93;1.77;;;1.80;57.60;;;;;;5064309;28;20051;-65
2022/01/21 04:31:06;;;;;;;4.65;1.35;;;1.70;57.00;;;;;;5069456;28;20505;-65
2022/01/21 04:33:32;;;;;;;8.10;1.70;;;1.70;57.30;;;;;;5051938;28;20355;-64
2022/01/21 04:35:58;;;;;;;7.53;1.73;;;1.80;57.40;;;;;;5069228;28;20404;-66
2022/01/21 04:38:25;;;;;;;10.35;2.15;;;1.80;57.80;;;;;;5052111;28;20060;-65
2022/01/21 04:40:59;;;;;;;7.20;1.67;;;1.70;57.10;;;;;;5069317;28;20029;-65
2022/01/21 04:48:53;;;;;;;8.35;1.92;;;1.70;57.10;;;;;;5072945;28;20499;-65
2022/01/21 04:51:25;;;;;;;11.38;2.30;;;1.70;56.90;;;;;;5073119;28;20103;-65
2022/01/21 04:53:51;;;;;;;9.95;2.00;;;1.60;57.20;;;;;;5069843;28;20292;-65
2022/01/21 04:56:17;;;;;;;8.25;1.80;;;1.60;57.40;;;;;;5062648;28;20520;-64
2022/01/21 04:58:44;;;;;;;9.02;1.90;;;1.60;56.90;;;;;;5048324;28;20453;-65
2022/01/21 05:01:11;;;;;;;6.40;1.60;;;1.50;56.50;;;;;;5052434;28;20029;-65
2022/01/21 05:03:39;;;;;;;8.35;2.10;;;1.50;56.70;;;;;;5066653;28;21263;-65
2022/01/21 05:06:05;;;;;;;8.38;2.03;;;1.60;57.10;;;;;;5064359;28;20031;-65
2022/01/21 05:08:41;;;;;;;8.98;1.88;;;1.60;56.90;;;;;;5070046;28;20032;-68
2022/01/21 05:11:07;;;;;;;9.50;2.08;;;1.60;56.50;;;;;;5069882;28;20034;-65
2022/01/21 05:13:40;;;;;;;7.18;1.88;;;1.60;56.40;;;;;;5069033;28;20049;-64
2022/01/21 05:16:17;;;;;;;9.40;2.47;;;1.50;56.70;;;;;;5070404;28;20033;-65
2022/01/21 05:18:43;;;;;;;8.65;1.90;;;1.50;56.70;;;;;;5071596;28;20046;-65
2022/01/21 05:21:08;;;;;;;6.95;1.80;;;1.40;56.50;;;;;;5065834;28;20036;-67
2022/01/21 05:23:34;;;;;;;6.88;1.45;;;1.50;57.10;;;;;;5070383;28;20086;-65
2022/01/21 05:26:00;;;;;;;8.38;1.60;;;1.60;57.00;;;;;;5069460;28;20028;-66
2022/01/21 05:28:26;;;;;;;5.00;1.60;;;1.60;56.80;;;;;;5069149;28;20389;-65
2022/01/21 05:30:52;;;;;;;7.40;1.63;;;1.70;56.50;;;;;;5070582;28;20115;-65
2022/01/21 05:33:17;;;;;;;9.55;1.75;;;1.70;56.20;;;;;;5046242;28;20452;-64
2022/01/21 05:35:43;;;;;;;8.68;1.98;;;1.60;56.20;;;;;;5064725;28;20049;-65
2022/01/21 05:38:09;;;;;;;12.75;1.90;;;1.60;56.10;;;;;;5069912;28;20035;-65
2022/01/21 05:40:36;;;;;;;9.70;2.15;;;1.60;56.30;;;;;;5072246;28;20047;-64
2022/01/21 05:43:03;;;;;;;12.18;1.75;;;1.60;56.40;;;;;;5066708;28;20020;-64
2022/01/21 05:48:13;;;;;;;9.13;1.75;;;1.60;56.40;;;;;;5059058;28;20040;-66
2022/01/21 05:50:39;;;;;;;16.05;2.92;;;1.60;56.30;;;;;;5068610;28;20032;-66
2022/01/21 05:53:09;;;;;;;9.93;1.83;;;1.50;56.50;;;;;;5060658;28;20511;-67
2022/01/21 05:55:40;;;;;;;5.68;1.45;;;1.40;56.40;;;;;;5050261;28;20052;-65
2022/01/21 05:58:06;;;;;;;5.93;1.80;;;1.40;56.40;;;;;;5061509;28;20059;-65
2022/01/21 06:00:31;;;;;;;12.55;2.10;;;1.40;56.70;;;;;;5068322;28;20040;-66
2022/01/21 06:02:57;;;;;;;6.50;1.90;;;1.40;56.70;;;;;;5069236;28;20684;-69
2022/01/21 06:05:23;;;;;;;14.18;1.65;;;1.40;56.70;;;;;;5054579;28;20025;-64
2022/01/21 06:07:48;;;;;;;9.60;1.52;;;1.40;56.60;;;;;;5067740;28;20052;-64
2022/01/21 06:10:14;;;;;;;9.57;1.75;;;1.40;56.70;;;;;;5066321;28;20028;-68
2022/01/21 06:12:40;;;;;;;14.35;2.53;;;1.40;56.60;;;;;;5036797;28;20500;-66
2022/01/21 06:15:06;;;;;;;7.15;1.80;;;1.40;56.40;;;;;;5062240;28;20520;-68
2022/01/21 06:17:32;;;;;;;10.73;2.08;;;1.40;56.60;;;;;;5063231;28;20021;-67
2022/01/21 06:19:57;;;;;;;9.60;1.92;;;1.40;57.30;;;;;;5042181;28;20102;-66
2022/01/21 06:22:23;;;;;;;5.88;1.90;;;1.40;56.30;;;;;;5069385;28;20166;-65
2022/01/21 06:24:51;;;;;;;10.55;2.47;;;1.40;56.40;;;;;;5052833;28;20037;-66
2022/01/21 06:27:19;;;;;;;12.90;1.80;;;1.40;56.40;;;;;;5068684;28;20083;-66
2022/01/21 06:29:44;;;;;;;12.13;2.00;;;1.40;56.00;;;;;;5063922;28;20055;-65
2022/01/21 06:32:10;;;;;;;9.68;2.20;;;1.40;55.80;;;;;;5066906;28;20138;-66
2022/01/21 06:34:36;;;;;;;12.65;2.20;;;1.40;55.90;;;;;;5071080;28;20454;-67
2022/01/21 06:37:01;;;;;;;9.80;1.92;;;1.40;56.00;;;;;;5060948;28;20029;-65
2022/01/21 06:39:27;;;;;;;7.82;2.15;;;1.50;55.80;;;;;;5033894;28;20063;-65
2022/01/21 06:41:53;;;;;;;11.88;2.55;;;1.50;55.60;;;;;;5063481;28;20037;-65
2022/01/21 06:44:19;;;;;;;8.63;2.55;;;1.50;56.00;;;;;;5034146;28;20035;-65
2022/01/21 06:46:47;;;;;;;9.80;1.98;;;1.50;55.60;;;;;;5064219;28;20528;-66
2022/01/21 06:49:12;;;;;;;8.95;2.08;;;1.50;55.60;;;;;;5060860;28;20050;-66
2022/01/21 06:51:38;;;;;;;7.50;1.83;;;1.50;55.70;;;;;;5068048;28;20430;-67
2022/01/21 06:54:04;;;;;;;15.93;2.60;;;1.50;55.30;;;;;;5035801;28;20466;-65
2022/01/21 06:56:30;;;;;;;8.18;2.08;;;1.40;55.20;;;;;;5052919;28;20059;-65
2022/01/21 06:58:56;;;;;;;9.57;2.15;;;1.50;55.30;;;;;;5042374;28;20056;-65
2022/01/21 07:01:22;;;;;;;12.88;1.52;;;1.40;55.10;;;;;;5032017;28;20032;-65
2022/01/21 07:03:48;;;;;;;11.55;2.25;;;1.40;55.20;;;;;;5062483;28;20028;-65
2022/01/21 07:06:13;;;;;;;9.50;2.17;;;1.50;55.20;;;;;;5052582;28;20021;-67
2022/01/21 07:08:39;;;;;;;14.10;2.30;;;1.60;54.90;;;;;;5067918;28;20409;-67
2022/01/21 07:11:05;;;;;;;10.48;2.45;;;1.60;54.30;;;;;;5063730;28;20536;-65
2022/01/21 07:13:31;;;;;;;8.88;2.15;;;1.60;54.30;;;;;;5052592;28;20063;-65
2022/01/21 07:15:58;;;;;;;13.80;2.28;;;1.60;54.10;;;;;;5071980;28;20039;-65
2022/01/21 07:18:24;;;;;;;8.40;2.08;;;1.70;54.20;;;;;;5080599;28;20032;-65
2022/01/21 07:20:50;;;;;;;11.18;1.80;;;1.70;53.60;;;;;;5079913;28;20120;-65
2022/01/21 07:23:16;;;;;;;9.55;1.88;;;1.70;54.20;;;;;;5081952;28;20460;-65
2022/01/21 07:25:42;;;;;;;8.32;1.55;;;1.70;54.60;;;;;;5078353;28;20024;-66
2022/01/21 07:28:08;;;;;;;8.30;1.90;;;1.80;53.40;;;;;;5071955;28;20124;-65
2022/01/21 07:30:34;;;;;;;9.63;1.77;;;1.80;53.30;;;;;;5094916;28;20138;-65
2022/01/21 07:33:00;;;;;;;14.93;2.63;;;1.80;53.40;;;;;;5075195;28;20623;-65
2022/01/21 07:35:26;;;;;;;12.48;2.35;;;1.90;53.30;;;;;;5086316;28;20040;-66
2022/01/21 07:37:52;;;;;;;13.82;2.10;;;1.90;52.90;;;;;;5075947;28;20028;-66
2022/01/21 07:40:17;;;;;;;10.45;1.83;;;1.80;52.80;;;;;;5085370;28;20038;-66
2022/01/21 07:42:43;;;;;;;12.15;2.17;;;1.90;53.10;;;;;;5085755;28;20028;-63
2022/01/21 07:45:09;;;;;;;20.70;3.58;;;2.00;52.50;;;;;;5086548;28;20035;-64
2022/01/21 07:47:35;;;;;;;9.57;4.22;;;2.80;52.10;;;;;;5086871;28;20051;-64
2022/01/21 07:50:01;;;;;;;14.30;4.20;;;5.00;48.60;;;;;;5088302;28;20461;-62
2022/01/21 07:52:27;;;;;;;12.07;4.30;;;7.00;44.40;;;;;;5087391;28;20024;-65
2022/01/21 07:54:53;;;;;;;21.10;6.80;;;8.30;42.30;;;;;;5068004;28;20036;-64
2022/01/21 07:57:18;;;;;;;8.95;6.07;;;9.00;38.50;;;;;;5086294;28;20030;-63
2022/01/21 07:59:44;;;;;;;23.02;7.55;;;8.80;37.00;;;;;;5088832;28;20036;-63
2022/01/21 08:02:10;;;;;;;20.27;4.78;;;7.80;37.60;;;;;;5089396;28;20393;-63
2022/01/21 08:04:36;;;;;;;15.45;2.67;;;6.80;39.40;;;;;;5088616;28;20047;-64
2022/01/21 08:07:02;;;;;;;12.27;2.30;;;6.30;41.20;;;;;;5089228;28;20035;-65
2022/01/21 08:09:27;;;;;;;7.95;1.98;;;5.70;41.80;;;;;;5090221;28;20050;-65
2022/01/21 08:11:54;;;;;;;12.02;2.10;;;5.50;42.60;;;;;;5089836;28;20055;-64
2022/01/21 08:14:23;;;;;;;11.52;2.35;;;5.40;42.90;;;;;;5088999;28;20556;-64
2022/01/21 08:16:50;;;;;;;10.80;1.98;;;5.30;42.80;;;;;;5089101;28;20028;-63
2022/01/21 08:19:15;;;;;;;18.42;2.40;;;5.10;43.10;;;;;;5088687;28;20469;-63
2022/01/21 08:21:42;;;;;;;8.45;2.10;;;5.00;43.50;;;;;;5094773;28;20085;-64
2022/01/21 08:24:09;;;;;;;10.90;2.20;;;4.70;43.50;;;;;;5095921;28;20032;-62
2022/01/21 08:26:36;;;;;;;8.43;2.13;;;4.60;43.90;;;;;;5096959;28;20506;-64
2022/01/21 08:29:02;;;;;;;11.00;2.72;;;4.30;44.30;;;;;;5091407;28;20060;-64
2022/01/21 08:31:28;;;;;;;8.60;1.75;;;4.20;44.90;;;;;;5089999;28;20035;-64
2022/01/21 08:33:54;;;;;;;10.65;2.35;;;4.10;45.00;;;;;;5095853;28;20155;-65
2022/01/21 08:36:22;;;;;;;9.25;2.70;;;4.00;45.00;;;;;;5096975;28;20029;-63
2022/01/21 08:38:48;;;;;;;11.23;2.35;;;4.00;44.90;;;;;;5097265;28;20558;-64
2022/01/21 08:41:13;;;;;;;13.80;2.17;;;3.70;44.90;;;;;;5095354;28;20032;-64
2022/01/21 08:43:40;;;;;;;11.50;1.95;;;3.70;45.80;;;;;;5089762;28;20028;-65
2022/01/21 08:46:06;;;;;;;7.97;1.77;;;3.60;46.00;;;;;;5086897;28;20044;-74
2022/01/21 08:48:32;;;;;;;9.85;2.13;;;3.60;46.10;;;;;;5084963;28;20484;-70
2022/01/21 08:51:24;;;;;;;12.02;2.33;;;3.40;45.90;;;;;;5088575;28;20090;-75
2022/01/21 08:53:50;;;;;;;8.05;2.42;;;3.30;46.30;;;;;;5087651;28;20036;-68
2022/01/21 08:56:18;;;;;;;11.95;1.65;;;3.30;46.80;;;;;;5092856;28;20472;-67
2022/01/21 08:58:46;;;;;;;8.52;2.33;;;3.20;46.70;;;;;;5090771;28;20029;-67
2022/01/21 09:01:13;;;;;;;14.48;2.80;;;3.10;47.30;;;;;;5077157;28;20376;-66
2022/01/21 09:03:40;;;;;;;8.52;1.65;;;3.00;47.20;;;;;;5113139;28;20027;-68
2022/01/21 09:06:07;;;;;;;11.35;1.95;;;3.00;46.90;;;;;;5097603;27;20024;-68
2022/01/21 09:08:33;;;;;;;8.23;1.80;;;3.00;47.10;;;;;;5090071;28;20118;-68
2022/01/21 09:11:02;;;;;;;12.88;1.85;;;3.10;46.80;;;;;;5089423;28;20060;-65
2022/01/21 09:13:30;;;;;;;8.88;2.05;;;3.20;46.90;;;;;;5084606;28;20105;-65
2022/01/21 09:16:00;;;;;;;8.43;1.90;;;3.20;46.40;;;;;;5096517;28;20023;-66
2022/01/21 09:18:44;;;;;;;11.45;2.90;;;3.20;46.40;;;;;;5079267;28;20477;-66
2022/01/21 09:21:10;;;;;;;;;;;3.20;46.10;;;;;;5081079;28;20033;-66
2022/01/21 09:23:35;;;;;;;9.55;2.90;;;3.30;46.00;;;;;;5090477;28;19916;-67
2022/01/21 09:26:01;;;;;;;8.15;2.00;;;3.10;45.80;;;;;;5096406;28;20254;-69
2022/01/21 09:28:27;;;;;;;9.88;1.98;;;3.20;46.10;;;;;;5094341;28;20524;-65
2022/01/21 09:30:53;;;;;;;8.82;3.10;;;3.30;45.90;;;;;;5091205;28;20434;-64
2022/01/21 09:33:18;;;;;;;20.00;2.67;;;3.20;45.30;;;;;;5082850;28;20028;-67
2022/01/21 09:35:44;;;;;;;12.80;2.33;;;3.20;45.60;;;;;;5087286;28;20506;-64
2022/01/21 09:38:10;;;;;;;11.20;1.95;;;3.40;45.60;;;;;;5090451;28;20366;-68
2022/01/21 09:40:43;;;;;;;11.30;2.33;;;3.40;45.00;;;;;;5083802;28;20116;-64
2022/01/21 09:43:09;;;;;;;11.63;2.60;;;3.40;45.30;;;;;;5085560;28;20192;-66
2022/01/21 09:45:36;;;;;;;7.25;1.67;;;3.40;45.30;;;;;;5087527;28;20036;-63
2022/01/21 09:48:06;;;;;;;13.50;1.80;;;3.40;45.00;;;;;;5084656;28;20063;-67
2022/01/21 09:50:33;;;;;;;21.50;2.58;;;3.40;44.80;;;;;;5095074;28;20470;-64
2022/01/21 09:52:59;;;;;;;15.43;2.15;;;3.60;44.40;;;;;;5073340;28;21895;-66
2022/01/21 09:55:25;;;;;;;16.13;2.95;;;3.60;43.60;;;;;;5087563;28;20024;-68
2022/01/21 09:57:55;;;;;;;14.93;2.22;;;3.60;43.90;;;;;;5087299;28;20086;-73
2022/01/21 10:00:23;;;;;;;13.93;2.08;;;3.60;43.90;;;;;;5091229;28;20036;-71
2022/01/21 10:02:50;;;;;;;11.23;2.03;;;3.60;44.00;;;;;;5082653;28;20036;-71
2022/01/21 10:05:17;;;;;;;59.58;4.32;;;3.60;43.40;;;;;;5097537;28;20028;-77
2022/01/21 10:07:46;;;;;;;8.63;1.80;;;3.60;43.20;;;;;;5075205;28;20029;-63
2022/01/21 10:10:13;;;;;;;10.88;2.15;;;3.60;43.10;;;;;;5057631;28;20112;-73
2022/01/21 10:12:43;;;;;;;13.30;2.20;;;3.70;43.30;;;;;;5091612;28;20057;-69
2022/01/21 10:15:10;;;;;;;13.38;2.15;;;3.60;42.70;;;;;;5074969;28;20714;-74
2022/01/21 10:17:37;;;;;;;7.53;1.98;;;3.70;43.00;;;;;;5082430;28;20024;-68
2022/01/21 10:20:22;;;;;;;23.45;2.75;;;3.80;43.30;;;;;;5081452;28;20041;-76
2022/01/21 10:23:09;;;;;;;12.63;1.90;;;3.90;42.20;;;;;;5070498;28;20029;-70
2022/01/21 10:25:37;;;;;;;7.82;1.60;;;4.00;41.90;;;;;;5087855;28;20016;-67
2022/01/21 10:28:10;;;;;;;20.35;2.15;;;3.90;41.50;;;;;;5084592;28;20462;-76
2022/01/21 10:30:36;;;;;;;9.88;2.10;;;4.00;42.50;;;;;;5080284;28;20111;-76
2022/01/21 10:33:19;;;;;;;6.60;1.70;;;4.10;41.20;;;;;;5080174;28;20469;-63
2022/01/21 10:35:48;;;;;;;8.10;1.40;;;4.10;40.70;;;;;;5082508;28;20055;-64
2022/01/21 10:38:24;;;;;;;8.25;1.77;;;4.20;40.80;;;;;;5089601;28;20111;-69
2022/01/21 10:40:50;;;;;;;8.30;2.13;;;4.20;40.40;;;;;;5090109;28;20112;-66
2022/01/21 10:43:18;;;;;;;6.07;1.88;;;4.20;40.70;;;;;;5091136;28;20123;-67
2022/01/21 10:45:57;;;;;;;14.15;2.05;;;4.20;42.40;;;;;;5088653;28;20043;-69
2022/01/21 10:48:24;;;;;;;13.55;2.45;;;4.20;41.00;;;;;;5088760;28;20059;-68
2022/01/21 10:51:15;;;;;;;19.58;2.25;;;4.30;40.50;;;;;;5089457;28;20031;-67
2022/01/21 10:53:43;;;;;;;7.88;2.40;;;4.40;40.30;;;;;;5086523;28;20338;-67
2022/01/21 10:56:12;;;;;;;17.08;2.20;;;4.40;39.90;;;;;;5091224;28;20398;-67
2022/01/21 10:58:42;;;;;;;6.15;1.92;;;4.50;40.20;;;;;;5090799;28;20428;-66
2022/01/21 11:01:13;;;;;;;10.55;2.10;;;4.50;40.50;;;;;;5091174;28;20093;-68
2022/01/21 11:03:56;;;;;;;13.40;1.77;;;4.60;39.90;;;;;;5090735;28;20028;-66
2022/01/21 11:06:25;;;;;;;13.57;1.65;;;4.70;39.80;;;;;;5091696;28;20072;-65
2022/01/21 11:09:11;;;;;;;10.25;1.80;;;4.70;40.00;;;;;;5092703;28;20122;-67
2022/01/21 11:11:37;;;;;;;18.38;2.30;;;4.70;40.20;;;;;;5078895;28;20107;-65
2022/01/21 11:14:14;;;;;;;6.75;2.08;;;4.90;40.10;;;;;;5088766;28;20143;-67
2022/01/21 11:16:43;;;;;;;9.63;2.10;;;5.30;39.50;;;;;;5089794;28;20483;-66
2022/01/21 11:19:13;;;;;;;12.40;2.10;;;5.30;39.10;;;;;;5088444;28;20059;-66
2022/01/21 11:21:47;;;;;;;7.55;1.80;;;5.30;39.30;;;;;;5091237;28;20111;-66
2022/01/21 11:24:16;;;;;;;8.45;2.22;;;5.10;40.00;;;;;;5090486;28;20024;-66
2022/01/21 11:26:43;;;;;;;15.15;2.72;;;5.00;41.50;;;;;;5090537;28;20052;-65
2022/01/21 11:29:10;;;;;;;11.50;2.50;;;5.00;42.10;;;;;;5088881;28;20928;-67
2022/01/21 11:31:36;;;;;;;8.50;2.15;;;5.10;42.50;;;;;;5091029;28;20029;-68
2022/01/21 11:34:02;;;;;;;11.30;2.30;;;5.10;42.40;;;;;;5089469;28;20499;-66
2022/01/21 11:36:28;;;;;;;7.85;1.90;;;5.10;42.90;;;;;;5091205;28;20137;-65
2022/01/21 11:38:55;;;;;;;7.28;2.65;;;5.00;42.50;;;;;;5089312;28;20028;-67
2022/01/21 11:41:26;;;;;;;8.15;2.00;;;4.90;42.70;;;;;;5089887;28;20024;-66
2022/01/21 11:43:56;;;;;;;21.52;2.50;;;4.90;43.00;;;;;;5091058;28;20026;-66
2022/01/21 11:49:01;;;;;;;8.95;1.88;;;4.80;42.90;;;;;;5090409;28;20436;-67
2022/01/21 11:51:33;;;;;;;12.98;2.70;;;4.80;42.90;;;;;;5089237;28;20027;-66
2022/01/21 11:54:01;;;;;;;8.98;2.42;;;4.90;42.90;;;;;;5090035;28;20180;-67
2022/01/21 11:56:43;;;;;;;9.55;2.03;;;4.90;43.20;;;;;;5088238;28;20032;-65
2022/01/21 11:59:27;;;;;;;18.00;2.72;;;4.80;42.90;;;;;;5088947;28;20066;-65
2022/01/21 12:01:54;;;;;;;9.27;2.60;;;5.10;43.40;;;;;;5089290;28;20027;-65
2022/01/21 12:04:39;;;;;;;7.40;2.22;;;5.90;41.80;;;;;;5090822;28;20024;-64
2022/01/21 12:07:33;;;;;;;17.10;2.55;;;6.10;40.90;;;;;;5082366;28;20028;-66
2022/01/21 12:10:08;;;;;;;14.73;3.33;;;5.90;41.20;;;;;;5090093;28;20127;-66
2022/01/21 12:12:51;;;;;;;10.27;2.78;;;5.70;41.80;;;;;;5089088;28;20502;-67
2022/01/21 12:15:34;;;;;;;7.97;2.30;;;5.80;41.80;;;;;;5089668;28;20433;-67
2022/01/21 12:18:54;;;;;;;13.07;2.88;;;6.00;40.50;;;;;;5087483;28;20118;-65
2022/01/21 12:21:35;;;;;;;10.48;2.30;;;6.00;40.40;;;;;;5088993;28;20032;-64
2022/01/21 12:24:01;;;;;;;13.90;2.50;;;5.80;41.00;;;;;;5088692;28;20035;-65
2022/01/21 12:26:28;;;;;;;37.17;3.70;;;5.60;41.50;;;;;;5090952;28;20039;-65
2022/01/21 12:28:59;;;;;;;10.63;2.42;;;5.40;42.20;;;;;;5090339;28;20028;-66
2022/01/21 12:31:46;;;;;;;9.35;2.60;;;5.20;42.20;;;;;;5070580;28;20036;-67
2022/01/21 12:34:15;;;;;;;6.95;2.20;;;5.10;43.30;;;;;;5088670;28;20078;-65
2022/01/21 12:36:49;;;;;;;12.82;2.88;;;5.00;43.20;;;;;;5090070;28;20020;-65
2022/01/21 12:39:49;;;;;;;10.57;2.45;;;5.00;43.60;;;;;;5090198;28;20076;-66
2022/01/21 12:42:27;;;;;;;11.88;3.03;;;5.00;43.50;;;;;;5090360;28;20045;-67
2022/01/21 12:45:05;;;;;;;10.60;2.42;;;4.90;42.80;;;;;;5089576;28;20393;-67
2022/01/21 12:47:37;;;;;;;17.38;2.22;;;4.90;44.00;;;;;;5090630;28;20020;-65
2022/01/21 12:53:14;;;;;;;8.10;2.30;;;4.80;44.00;;;;;;5089343;28;20016;-66
2022/01/21 12:55:55;;;;;;;9.80;2.30;;;4.80;44.40;;;;;;5090703;28;20457;-65
2022/01/21 12:58:30;;;;;;;7.85;2.22;;;4.80;44.20;;;;;;5089283;28;20032;-64
2022/01/21 13:00:58;;;;;;;11.05;2.40;;;4.80;44.60;;;;;;5090784;28;20161;-65
2022/01/21 13:03:45;;;;;;;11.65;2.97;;;4.80;45.00;;;;;;5090440;28;20024;-66
2022/01/21 13:06:29;;;;;;;18.50;2.33;;;4.80;45.00;;;;;;5090183;28;20063;-66
2022/01/21 13:09:06;;;;;;;14.77;2.38;;;4.80;44.90;;;;;;5094303;28;20032;-66
2022/01/21 13:11:33;;;;;;;10.80;2.70;;;4.70;44.90;;;;;;5093994;28;20020;-65
2022/01/21 13:17:02;;;;;;;8.80;2.40;;;4.70;45.00;;;;;;5073058;28;20055;-66
2022/01/21 13:19:30;;;;;;;9.25;2.15;;;4.60;45.10;;;;;;5073563;28;20044;-65
2022/01/21 13:21:56;;;;;;;15.07;2.42;;;4.50;45.60;;;;;;5073888;28;20036;-68
2022/01/21 13:24:27;;;;;;;12.23;2.42;;;4.50;45.90;;;;;;5055434;28;20024;-68
2022/01/21 13:26:55;;;;;;;9.40;2.30;;;4.40;45.90;;;;;;5073993;28;20025;-68
2022/01/21 13:29:33;;;;;;;18.00;2.90;;;4.40;46.20;;;;;;5055047;28;20029;-69
2022/01/21 13:32:01;;;;;;;12.65;2.45;;;4.50;46.10;;;;;;5067108;28;20112;-69
2022/01/21 13:34:36;;;;;;;9.70;1.95;;;4.40;46.30;;;;;;5055843;28;20028;-68
2022/01/21 13:37:07;;;;;;;15.30;2.67;;;4.40;46.80;;;;;;5055286;28;20028;-67
2022/01/21 13:39:36;;;;;;;7.93;2.50;;;4.30;46.60;;;;;;5073613;28;20056;-67
2022/01/21 13:42:11;;;;;;;8.13;2.70;;;4.30;46.70;;;;;;5073018;28;20029;-67
2022/01/21 13:44:47;;;;;;;7.03;1.90;;;4.30;46.80;;;;;;5054844;28;20331;-67
2022/01/21 13:47:23;;;;;;;16.17;2.75;;;4.30;46.10;;;;;;5054766;28;20112;-67
2022/01/21 13:49:49;;;;;;;10.52;2.20;;;4.20;46.70;;;;;;5060522;28;20060;-68
2022/01/21 13:52:15;;;;;;;15.60;5.97;;;4.20;46.60;;;;;;5052692;28;20021;-67
2022/01/21 13:54:49;;;;;;;7.15;2.05;;;4.20;46.70;;;;;;5053305;28;20033;-66